Providence, Rhode Island
Traffic Map
Current Weather Conditions
Providence, Rhode Island
Overcast
Overcast
29°
Feels Like: 21°
Wind Chill: 21° Ceiling: 3200
Heat Index: 29° Visibility: 10mi
Dew Point: 20° Wind: 8mph
Humidity: 69% Direction: 350° (N)
Pressure: 29.6in Gusts: 0mph
Raw Report DataKPVD 091751Z 35007KT 10SM OVC032 M02/M07 A2960 RMK AO2 SLP023 T10171067 11017 21061 56033 $
Traffic Incident Summary
Active as of:
Severity:
Category:
InformationThere was an issue retrieving the traffic information for this location. Please try a different location or try again shortly.
Advertisements
Track Severe Weather on mobile